Pilot Point, AK (99649)

3:12 PM AKDT on May 03, 2015 (GMT -0800)
Pilot Point AP, Pilot Point, | | Change Station
CLOSE
Current Station
Airport
Location: Pilot Point AP, Pilot Point,,
Elevation: 56 ft
Nearby Weather Stations

Elev 56 ft 57.58 °N, 157.57 °W | Updated 16 minutes ago

Overcast
Overcast
40 °F
Feels Like 40 °F
N
0
Wind Variable Wind from North

Today
High -- | Low -- °F
--% Chance of Precip.
Yesterday
High -- | Low -- °F
Precip. -- in
6:34 AM 10:20 PM
Full, 100% visible
Pressure 30.17 in
Visibility -9999.0 miles
Clouds Overcast 1300 ft
Dew Point 38 °F
Humidity 93%
Rainfall 0.03 in
Snow Depth Not available.
UV 2 out of 12
Pollen Not available.
Air Quality Not available.
Flu Activity Sporadic
METAR PAPN 032256Z AUTO 00000KT OVC013 04/03 A3017 RMK AO2 PWINO TSNO T00440033 SLP216 $

More Conditions Fewer Conditions

Pressure 30.17 in
Visibility -9999.0 miles
Clouds Overcast 1300 ft
Dew Point 38 °F
Humidity 93%
Rainfall 0.03 in
Snow Depth Not available.
UV 2 out of 12
Pollen Not available.
Air Quality Not available.
Flu Activity Sporadic
METAR PAPN 032256Z AUTO 00000KT OVC013 04/03 A3017 RMK AO2 PWINO TSNO T00440033 SLP216 $

More Conditions Fewer Conditions

10-Day Weather Forecast

Almanac

Astronomy

May. 03, 2015 Rise Set
Actual Time
Civil Twilight
Nautical Twilight
Astronomical Twilight
Moon
Length of Visible Light
Length of Day
Tomorrow will be .
, % of the Moon is Illuminated

Today's Extremes

State Highs State Lows

Community

WunderPhotos

Upload Photos

1,818,412 photos uploaded!

WunderBlogs® & News

Nearby

Air Quality

  Air Quality AQ Index Pollutant
Not available.

Snow Depth

Station Depth Elevation

Earthquake Activity

City Distance Mag. Time & Date
Minimum magnitude displayed is 2.5.

Coastal Water Temperatures

Place Temperature

Stations

Nearby Weather Stations

Station Location Temp. Windchill Dew Point Humidity Wind Precip. Elev Updated Type